Station info - map view · info · telemetry · weather · raw · status · beacons · messages · bulletins · browse · moving · my account
Callsign, ship name or locator: Clear       
It is possible to search using wildcards (*?) after a prefix. Example: OH*
APRS station IW2EJH-9 - show graphs
Map loading...
Comment: -1-
Mic-E message: In service
Last status: TinyTrak3 v1.1
Location: 45°48.80' N 10°04.24' E - locator JN55AT85LE - show map - static map
2.0 miles East bearing 92° from Sovere, Provincia di Bergamo, Lombardy, Italy [?]
2.9 miles Northeast bearing 45° from Solto Collina, Provincia di Bergamo, Lombardy, Italy
48.9 miles Northeast bearing 60° from Milan, Province of Milan, Lombardy, Italy
51.9 miles Northwest bearing 301° from Verona, Provincia di Verona, Veneto, Italy
Last position: 2020-09-27 08:19:22 EDT (14h42m ago)
2020-09-27 14:19:22 CEST local time at Sovere, Italy [?]
Altitude: 830 ft
Course: 315°
Speed: 6 MPH
Last path: IW2EJH-9>T5TX80 via WIDE1-1,WIDE2-2,qAR,IW2EJH-12 (good)
Positions stored: 110893
Packet rate: 22 seconds between packets on average during 1095 seconds.
This station is transmitting packets at a high rate, which can cause congestion in the APRS network.
Other SSIDs: IW2EJH IW2EJH-1 IW2EJH-11 IW2EJH-12 IW2EJH-2 IW2EJH-7 IW2EJH-8
Stations near current position of IW2EJH-9 - show more
callsign distance last heard - EDT      callsign distance last heard - EDT
IW2EJH-828.8 yards 270°2020-09-26 11:49:08 IW2EJH103.1 yards 352°2020-09-27 23:00:03
IW2EJH-11132.7 yards 241°2020-09-27 22:49:13 I/LO-4262.0 miles 239°2020-09-02 03:41:04
IZ2PAG-102.3 miles 62°2020-09-27 15:31:26 IU2CMQ-132.5 miles 214°2020-09-27 22:58:28
I/LO-2172.7 miles 345°2020-09-02 03:46:00 IU2NTG-72.8 miles 234°2020-09-22 07:12:05
IU2NTG-122.8 miles 233°2020-09-26 10:23:52 IZ2UQD-92.9 miles 249°2020-09-20 00:17:20
IZ2PAG-132.9 miles 248°2020-09-27 22:57:56 IK2IKW-53.0 miles 64°2020-09-27 01:30:02
IW2EJH-123.0 miles 8°2020-09-27 22:49:02 IU2HOU-93.7 miles 206°2020-09-27 12:17:59
IZ2QDG-94.4 miles 62°2020-09-27 04:24:50 IZ2QDG-74.4 miles 63°2020-09-26 11:34:56
IZ2QDG-H14.4 miles 63°2020-09-15 05:33:37 I2QDG-74.4 miles 63°2020-09-07 09:21:30
IZ2QDG-84.4 miles 63°2020-09-12 08:36:53 IZ2QDG-14.4 miles 63°2020-09-27 15:02:08
Stations which heard IW2EJH-9 directly on radio –
callsign pkts first heard - EDT last heard longest (tx => rx) longest at - EDT
IR2BZ 19 2020-09-12 07:35:11 2020-09-27 07:55:44 JN55EU > JN45XO 26.5 miles 229° 2020-09-12 07:35:11
IR2BT 10 2020-09-12 06:25:49 2020-09-12 07:51:45 JN55EU > JN55FO 17.3 miles 168° 2020-09-12 07:51:45
IR2T 23 2020-09-12 08:15:52 2020-09-27 02:16:07 JN55AT > JN56EB 23.7 miles 37° 2020-09-27 02:16:07
IR2Y 4 2020-09-12 07:36:54 2020-09-12 07:38:41 JN55EU > JN55EK 29.2 miles 179° 2020-09-12 07:38:41
IR4BA 9 2020-09-12 07:33:50 2020-09-12 07:51:37 JN55EU > JN54NF 118.9 miles 163° 2020-09-12 07:51:37
IR1DM 1 2020-09-12 07:38:23 2020-09-12 07:38:23 JN55EU > JN44JS 107.4 miles 226° 2020-09-12 07:38:23
IR2S 51 2020-09-12 06:25:22 2020-09-12 07:38:41 JN55EU > JN55DQ 13.0 miles 203° 2020-09-12 07:38:41
IR2CV 3 2020-09-12 07:33:22 2020-09-12 07:41:31 JN55EU > JN55JC 56.1 miles 160° 2020-09-12 07:41:31
IR2BW 6 2020-09-12 07:36:13 2020-09-22 12:52:41 JN55EU > JN55DN 18.9 miles 194° 2020-09-12 07:38:22
IW2GKZ-11 1 2020-09-12 07:38:00 2020-09-12 07:38:00 JN55EU > JN45OQ 58.6 miles 259° 2020-09-12 07:38:00
IR2DF 436 2020-09-01 06:20:56 2020-09-27 08:19:22 JN55EW > JN55AS 21.2 miles 238° 2020-09-12 09:42:11
IZ2UQD-11 179 2020-09-01 06:22:59 2020-09-25 06:13:46 JN55BT > JN55DW 12.3 miles 54° 2020-09-08 02:18:48
IK2CHZ-12 19 2020-09-12 07:28:10 2020-09-27 02:42:50 JN55EU > JN45UI 47.2 miles 225° 2020-09-12 07:41:32
IW2EJH-12 499 2020-09-01 06:17:08 2020-09-27 08:19:22 JN55EV > JN55AU 15.0 miles 264° 2020-09-12 07:58:07
IR2BY 82 2020-09-01 08:40:12 2020-09-27 08:15:01 JN55AT > JN55BQ 8.2 miles 178° 2020-09-12 05:41:30
IR4UCI-11 13 2020-09-12 07:29:20 2020-09-12 07:53:19 JN55EU > JN54MM 98.1 miles 161° 2020-09-12 07:53:19
IU2GOH 1 2020-09-22 12:39:19 2020-09-22 12:39:19 JN55CM > JN55BL 5.6 miles 243° 2020-09-22 12:39:19
IQ3VO 1 2020-09-12 07:40:05 2020-09-12 07:40:05 JN55EU > JN55MQ 34.8 miles 107° 2020-09-12 07:40:05
IU2GED 2 2020-09-12 06:22:00 2020-09-12 08:03:26 JN55EV > JN45XV 22.3 miles 273° 2020-09-12 08:03:26
IR1BP 1 2020-09-12 07:37:50 2020-09-12 07:37:50 JN55EU > JN44BJ 148.1 miles 228° 2020-09-12 07:37:50
IU2ITE 1 2020-09-12 07:38:10 2020-09-12 07:38:10 JN55EU > JN45MK 69.2 miles 246° 2020-09-12 07:38:10
IZ1TMF 3 2020-09-12 07:35:02 2020-09-12 07:37:58 JN55EU > JN35PA 160.8 miles 251° 2020-09-12 07:35:02
IZ2DDY 12 2020-09-12 07:29:29 2020-09-22 13:11:44 JN55ET > JN45SH 56.2 miles 231° 2020-09-12 07:32:20
IQ2DK 5 2020-09-12 07:35:02 2020-09-12 07:38:10 JN55EU > JN44MX 88.3 miles 229° 2020-09-12 07:35:37
IR2BP 12 2020-09-22 12:35:07 2020-09-26 07:10:33 JN55AS > JN55DN 19.8 miles 144° 2020-09-26 07:06:05
IQ3ZF 7 2020-09-12 06:25:24 2020-09-12 07:52:27 JN55CS > JN55KL 38.9 miles 122° 2020-09-12 06:25:24
IR2CZ 144 2020-09-01 06:23:26 2020-09-27 08:14:45 JN55EU > JN45XS 21.1 miles 260° 2020-09-12 07:38:10
IR2DD 9 2020-09-12 07:33:33 2020-09-12 07:53:19 JN55EU > JN55GL 28.5 miles 165° 2020-09-12 07:53:19
IR2UGI 1 2020-09-12 07:36:13 2020-09-12 07:36:13 JN55EU > JN45KK 77.7 miles 251° 2020-09-12 07:36:13

Only position packets which were originated by the station are shown here. The range statistics show some extra long hops, because some digipeaters do not correctly add themselves to the digipeater path. Please check the raw packets.
About this site
This page shows real-time information collected from the Automatic Position Reporting System Internet network (APRS-IS). APRS is used by amateur (ham) radio operators to transmit real-time position information, weather data, telemetry and messages over the radio. A vehicle equipped with a GPS receiver, a VHF transmitter or HF transceiver and a small computer device called a tracker transmits it's location, speed and course in a small data packet, which is then received by a nearby iGate receiving site which forwards the packet on the Internet. Systems connected to the Internet can send information on the APRS-IS without a radio transmitter, or collect and display information transmitted anywhere in the world.
User guide · FAQ · Blog · Discussion group · Linking to aprs.fi · AIS sites · Service status · Database statistics · Advertising on aprs.fi · Technical details · API · Change log · Planned changes · Credits and thanks · Terms Of Service · iPhone/iPad APRS